Time;durP1;ratioP1;P1;durP2;ratioP2;P2;SDS_P1;SDS_P2;PMS_P1;PMS_P2;Temp;Humidity;BMP_temperature;BMP_pressure;BME280_temperature;BME280_humidity;BME280_pressure;Samples;Min_cycle;Max_cycle;Signal;HPM_P1;HPM_P2
2023/06/02 00:01:34;;;;;;;14.15;3.08;;;12.10;88.50;;;;;;5075723;28;20044;-69
2023/06/02 00:04:04;;;;;;;15.55;3.30;;;12.10;88.40;;;;;;5075906;28;20036;-69
2023/06/02 00:06:32;;;;;;;17.77;2.92;;;12.10;88.20;;;;;;5075903;28;20036;-69
2023/06/02 00:08:58;;;;;;;14.98;3.22;;;12.00;88.20;;;;;;5075896;28;20111;-69
2023/06/02 00:11:25;;;;;;;17.63;3.33;;;12.00;88.30;;;;;;5076020;28;20051;-70
2023/06/02 00:13:51;;;;;;;16.67;3.35;;;12.00;88.40;;;;;;5075726;28;20091;-70
2023/06/02 00:16:16;;;;;;;13.50;2.80;;;12.00;88.30;;;;;;5075642;28;20044;-69
2023/06/02 00:18:43;;;;;;;17.58;3.28;;;12.00;88.30;;;;;;5075686;28;20043;-69
2023/06/02 00:21:09;;;;;;;14.07;2.95;;;12.00;88.50;;;;;;5075556;28;20048;-69
2023/06/02 00:23:35;;;;;;;16.60;3.92;;;12.00;88.40;;;;;;5075595;28;20047;-69
2023/06/02 00:26:01;;;;;;;16.70;2.90;;;12.10;88.50;;;;;;5075578;28;20117;-69
2023/06/02 00:28:27;;;;;;;20.98;3.30;;;12.00;88.50;;;;;;5059166;28;20047;-69
2023/06/02 00:30:56;;;;;;;18.58;3.50;;;12.00;88.50;;;;;;5075469;28;20081;-69
2023/06/02 00:33:22;;;;;;;15.70;2.85;;;12.00;88.50;;;;;;5075409;28;20040;-69
2023/06/02 00:35:47;;;;;;;18.45;3.90;;;12.00;88.50;;;;;;5075703;28;20079;-69
2023/06/02 00:38:13;;;;;;;15.13;3.00;;;12.00;88.90;;;;;;5075712;28;20507;-69
2023/06/02 00:40:39;;;;;;;18.95;3.53;;;12.00;88.90;;;;;;5075294;28;20458;-69
2023/06/02 00:43:04;;;;;;;16.83;3.00;;;12.00;89.00;;;;;;5075274;28;20047;-69
2023/06/02 00:45:32;;;;;;;18.90;3.45;;;12.00;89.30;;;;;;5075323;28;20123;-69
2023/06/02 00:48:00;;;;;;;14.52;3.20;;;12.00;89.60;;;;;;5075480;28;20403;-69
2023/06/02 00:50:27;;;;;;;14.88;3.17;;;12.00;89.10;;;;;;5075424;28;20047;-69
2023/06/02 00:52:55;;;;;;;18.23;3.45;;;12.00;88.90;;;;;;5075484;28;20403;-69
2023/06/02 00:55:21;;;;;;;14.77;3.20;;;12.00;88.80;;;;;;5075142;28;20039;-69
2023/06/02 00:57:51;;;;;;;17.90;3.38;;;12.00;88.80;;;;;;5075406;28;20059;-69
2023/06/02 01:00:20;;;;;;;13.48;2.88;;;12.00;89.10;;;;;;5093502;28;20051;-69
2023/06/02 01:02:45;;;;;;;17.42;2.80;;;12.00;89.20;;;;;;5074619;28;20043;-69
2023/06/02 01:05:12;;;;;;;17.50;2.83;;;12.00;89.40;;;;;;5075390;28;20123;-69
2023/06/02 01:07:44;;;;;;;14.90;3.10;;;12.00;89.60;;;;;;5075099;28;20047;-69
2023/06/02 01:10:12;;;;;;;14.38;3.42;;;12.00;89.70;;;;;;5075300;28;20123;-69
2023/06/02 01:12:37;;;;;;;19.02;3.25;;;12.00;89.90;;;;;;5093039;28;20488;-69
2023/06/02 01:15:03;;;;;;;14.32;2.90;;;12.00;89.90;;;;;;5093065;28;20081;-69
2023/06/02 01:17:35;;;;;;;14.57;3.13;;;12.00;90.00;;;;;;5074994;28;20044;-69
2023/06/02 01:20:04;;;;;;;17.33;3.03;;;12.00;90.00;;;;;;5075004;28;20526;-69
2023/06/02 01:22:34;;;;;;;15.05;3.63;;;12.00;90.10;;;;;;5074802;28;20032;-69
2023/06/02 01:25:00;;;;;;;15.80;3.33;;;11.90;90.00;;;;;;5058309;28;20039;-69
2023/06/02 01:27:26;;;;;;;15.45;3.17;;;11.90;90.20;;;;;;5092988;28;20036;-69
2023/06/02 01:29:54;;;;;;;19.92;2.95;;;11.90;90.20;;;;;;5058401;28;20036;-69
2023/06/02 01:32:33;;;;;;;13.20;3.22;;;11.90;90.20;;;;;;5074843;28;20052;-69
2023/06/02 01:35:02;;;;;;;15.02;3.13;;;11.90;90.30;;;;;;5074842;28;20052;-69
2023/06/02 01:37:30;;;;;;;17.60;3.28;;;11.80;90.30;;;;;;5075006;28;20443;-69
2023/06/02 01:39:56;;;;;;;17.15;2.92;;;11.80;90.30;;;;;;5074733;28;20044;-70
2023/06/02 01:42:22;;;;;;;58.95;5.63;;;11.80;90.40;;;;;;5057827;28;20047;-69
2023/06/02 01:44:48;;;;;;;31.58;3.75;;;11.80;90.40;;;;;;5074690;28;20044;-69
2023/06/02 01:47:14;;;;;;;22.63;3.03;;;11.80;90.30;;;;;;5074706;28;20036;-69
2023/06/02 01:49:40;;;;;;;12.95;2.70;;;11.80;90.30;;;;;;5074660;28;20032;-69
2023/06/02 01:52:06;;;;;;;21.88;3.00;;;11.80;90.40;;;;;;5074545;28;20043;-69
2023/06/02 01:54:31;;;;;;;16.65;3.60;;;11.80;90.40;;;;;;5092950;28;20036;-69
2023/06/02 01:56:57;;;;;;;17.02;3.42;;;11.80;90.60;;;;;;5058043;28;20401;-69
2023/06/02 01:59:22;;;;;;;17.33;3.60;;;11.80;90.60;;;;;;5074617;28;20122;-69
2023/06/02 02:01:48;;;;;;;16.98;3.63;;;11.80;90.60;;;;;;5074325;28;20036;-69
2023/06/02 02:04:14;;;;;;;17.98;3.33;;;11.80;90.60;;;;;;5074559;28;20093;-69
2023/06/02 02:06:40;;;;;;;18.08;3.50;;;11.70;90.60;;;;;;5092863;28;20036;-69
2023/06/02 02:09:07;;;;;;;19.80;3.50;;;11.70;90.70;;;;;;5092561;28;20051;-69
2023/06/02 02:11:33;;;;;;;19.88;3.17;;;11.70;90.70;;;;;;5057947;28;20119;-69
2023/06/02 02:13:59;;;;;;;18.00;3.00;;;11.70;90.90;;;;;;5074981;28;20082;-69
2023/06/02 02:16:24;;;;;;;10.77;2.70;;;11.60;90.90;;;;;;5078018;28;20447;-69
2023/06/02 02:18:52;;;;;;;15.27;3.15;;;11.60;91.10;;;;;;5078010;28;20044;-69
2023/06/02 02:21:18;;;;;;;16.23;3.20;;;11.50;91.30;;;;;;5095953;28;20040;-69
2023/06/02 02:23:44;;;;;;;15.85;3.13;;;11.50;91.40;;;;;;5077922;28;20493;-69
2023/06/02 02:26:10;;;;;;;10.85;2.78;;;11.50;91.50;;;;;;5077788;28;20049;-69
2023/06/02 02:28:37;;;;;;;17.42;2.97;;;11.50;91.80;;;;;;5096006;28;20036;-69
2023/06/02 02:31:04;;;;;;;15.57;2.90;;;11.50;91.70;;;;;;5096105;28;20036;-69
2023/06/02 02:33:30;;;;;;;18.73;3.55;;;11.50;91.80;;;;;;5077724;28;20115;-69
2023/06/02 02:35:55;;;;;;;13.98;2.75;;;11.50;91.90;;;;;;5077691;28;20131;-69
2023/06/02 02:38:21;;;;;;;16.67;2.97;;;11.50;91.80;;;;;;5077937;28;20122;-69
2023/06/02 02:40:47;;;;;;;14.68;3.50;;;11.50;91.90;;;;;;5077594;28;20463;-69
2023/06/02 02:43:13;;;;;;;19.10;3.20;;;11.50;92.00;;;;;;5060851;28;20044;-69
2023/06/02 02:45:39;;;;;;;14.38;2.65;;;11.50;92.10;;;;;;5077729;28;20507;-69
2023/06/02 02:48:06;;;;;;;16.25;3.33;;;11.50;92.10;;;;;;5095603;28;20392;-69
2023/06/02 02:50:32;;;;;;;16.38;2.70;;;11.50;92.30;;;;;;5060548;28;20043;-69
2023/06/02 02:52:57;;;;;;;18.42;3.55;;;11.50;92.50;;;;;;5077651;28;20036;-69
2023/06/02 02:55:23;;;;;;;14.93;2.90;;;11.50;92.60;;;;;;5077337;28;20488;-69
2023/06/02 02:57:48;;;;;;;18.10;3.20;;;11.60;92.70;;;;;;5077542;28;20050;-69
2023/06/02 03:00:14;;;;;;;14.68;2.90;;;11.60;92.80;;;;;;5077134;28;20044;-69
2023/06/02 03:02:40;;;;;;;19.10;3.80;;;11.60;92.90;;;;;;5076968;28;20127;-69
2023/06/02 03:05:06;;;;;;;17.67;3.13;;;11.60;93.20;;;;;;5077132;28;20076;-69
2023/06/02 03:07:34;;;;;;;21.20;3.55;;;11.60;93.00;;;;;;5060389;28;20451;-69
2023/06/02 03:10:00;;;;;;;20.20;3.08;;;11.60;93.10;;;;;;5077323;28;20107;-70
2023/06/02 03:12:25;;;;;;;19.27;3.83;;;11.60;93.20;;;;;;5077184;28;20473;-69
2023/06/02 03:14:51;;;;;;;15.52;2.83;;;11.60;93.30;;;;;;5077177;28;20488;-69
2023/06/02 03:17:17;;;;;;;20.40;3.40;;;11.60;93.40;;;;;;5077087;28;20488;-69
2023/06/02 03:19:43;;;;;;;15.25;2.72;;;11.60;93.40;;;;;;5077111;28;20043;-69
2023/06/02 03:22:09;;;;;;;17.35;2.80;;;11.60;93.50;;;;;;5076641;28;20398;-69
2023/06/02 03:24:34;;;;;;;17.73;3.05;;;11.60;93.50;;;;;;5077003;28;20094;-69
2023/06/02 03:27:00;;;;;;;21.08;4.60;;;11.60;93.50;;;;;;5076602;28;20561;-69
2023/06/02 03:29:26;;;;;;;20.23;3.33;;;11.60;93.70;;;;;;5095073;28;20122;-69
2023/06/02 03:31:53;;;;;;;15.38;3.33;;;11.60;93.90;;;;;;5076812;28;20051;-69
2023/06/02 03:34:20;;;;;;;16.85;3.45;;;11.60;93.90;;;;;;5076821;28;20182;-69
2023/06/02 03:36:46;;;;;;;13.13;2.92;;;11.60;94.00;;;;;;5076575;28;20118;-69
2023/06/02 03:39:13;;;;;;;15.18;3.08;;;11.60;94.20;;;;;;5076498;28;20075;-69
2023/06/02 03:41:39;;;;;;;15.27;3.30;;;11.60;94.40;;;;;;5076547;28;20177;-69
2023/06/02 03:44:05;;;;;;;16.00;2.97;;;11.70;94.60;;;;;;5076358;28;20529;-69
2023/06/02 03:46:31;;;;;;;19.40;3.45;;;11.60;94.60;;;;;;5076224;28;20120;-69
2023/06/02 03:48:57;;;;;;;18.20;2.95;;;11.70;94.60;;;;;;5076207;28;20118;-69
2023/06/02 03:51:23;;;;;;;13.07;2.85;;;11.70;94.60;;;;;;5076075;28;20071;-69
2023/06/02 03:53:49;;;;;;;19.77;3.33;;;11.70;94.70;;;;;;5076089;28;20074;-69
2023/06/02 03:56:15;;;;;;;18.80;3.58;;;11.70;94.60;;;;;;5076116;28;20043;-69
2023/06/02 03:58:41;;;;;;;18.90;3.40;;;11.70;94.60;;;;;;5076096;28;20036;-69
2023/06/02 04:01:06;;;;;;;16.73;3.15;;;11.70;94.60;;;;;;5075785;28;20044;-69
2023/06/02 04:03:36;;;;;;;15.35;2.75;;;11.70;94.60;;;;;;5075897;28;20043;-69
2023/06/02 04:06:03;;;;;;;18.27;3.05;;;11.70;94.80;;;;;;5075989;28;20044;-69
2023/06/02 04:08:28;;;;;;;18.20;4.00;;;11.70;94.80;;;;;;5075907;28;20047;-69
2023/06/02 04:10:54;;;;;;;16.17;2.88;;;11.70;95.00;;;;;;5076330;28;20036;-69
2023/06/02 04:13:20;;;;;;;20.88;3.60;;;11.70;95.00;;;;;;5075838;28;20040;-69
2023/06/02 04:15:46;;;;;;;17.73;3.22;;;11.80;95.10;;;;;;5075764;28;20036;-69
2023/06/02 04:18:12;;;;;;;19.02;3.47;;;11.80;95.20;;;;;;5075747;28;20072;-69
2023/06/02 04:20:38;;;;;;;15.77;3.42;;;11.80;95.30;;;;;;5075673;28;20140;-69
2023/06/02 04:23:03;;;;;;;18.17;3.40;;;11.80;95.40;;;;;;5093984;28;20040;-69
2023/06/02 04:25:29;;;;;;;20.00;3.45;;;11.90;95.50;;;;;;5075916;28;20032;-69
2023/06/02 04:27:54;;;;;;;12.90;3.35;;;11.90;95.70;;;;;;5076670;28;20489;-69
2023/06/02 04:30:20;;;;;;;16.60;3.35;;;11.90;95.70;;;;;;5076540;28;20036;-69
2023/06/02 04:32:46;;;;;;;18.63;3.60;;;11.90;95.80;;;;;;5075510;28;20508;-69
2023/06/02 04:35:12;;;;;;;16.33;3.40;;;11.90;95.90;;;;;;5094175;28;20110;-69
2023/06/02 04:37:38;;;;;;;15.27;3.05;;;11.90;95.90;;;;;;5075158;28;20069;-70
2023/06/02 04:40:04;;;;;;;15.13;3.00;;;11.90;95.90;;;;;;5075696;28;20086;-70
2023/06/02 04:42:32;;;;;;;23.10;3.50;;;12.00;96.10;;;;;;5075223;28;20072;-70
2023/06/02 04:45:00;;;;;;;21.77;3.65;;;11.90;96.10;;;;;;5075319;28;20036;-69
2023/06/02 04:47:27;;;;;;;20.00;3.60;;;12.00;96.20;;;;;;5075306;28;20040;-69
2023/06/02 04:49:53;;;;;;;16.50;3.58;;;12.00;96.20;;;;;;5075333;28;20089;-69
2023/06/02 04:52:19;;;;;;;16.98;3.35;;;12.00;96.40;;;;;;5075179;28;20044;-69
2023/06/02 04:54:44;;;;;;;25.38;3.53;;;12.00;96.50;;;;;;5075181;28;20116;-69
2023/06/02 04:57:10;;;;;;;18.55;3.03;;;12.00;96.50;;;;;;5075468;28;20039;-69
2023/06/02 04:59:36;;;;;;;23.83;4.00;;;12.10;96.50;;;;;;5075293;28;20409;-69
2023/06/02 05:02:02;;;;;;;22.40;3.58;;;12.10;96.60;;;;;;5058237;28;20051;-69
2023/06/02 05:04:27;;;;;;;18.20;3.13;;;12.10;96.60;;;;;;5075363;28;20039;-69
2023/06/02 05:06:53;;;;;;;19.45;3.45;;;12.10;96.70;;;;;;5075163;28;20119;-69
2023/06/02 05:09:19;;;;;;;17.17;3.97;;;12.10;96.80;;;;;;5075357;28;20173;-69
2023/06/02 05:11:44;;;;;;;18.70;3.47;;;12.20;96.70;;;;;;5074978;28;20480;-70
2023/06/02 05:14:10;;;;;;;16.55;3.08;;;12.20;96.80;;;;;;5093176;28;20063;-70
2023/06/02 05:16:36;;;;;;;19.10;3.58;;;12.30;96.90;;;;;;5075220;28;20131;-70
2023/06/02 05:19:05;;;;;;;14.20;2.92;;;12.30;96.90;;;;;;5074987;28;20044;-70
2023/06/02 05:21:31;;;;;;;17.17;3.47;;;12.30;97.00;;;;;;5074782;28;20400;-70
2023/06/02 05:23:58;;;;;;;18.08;3.88;;;12.30;97.10;;;;;;5058224;28;20100;-70
2023/06/02 05:26:23;;;;;;;17.30;3.42;;;12.30;97.30;;;;;;5074897;28;20489;-70
2023/06/02 05:28:50;;;;;;;15.80;3.47;;;12.40;97.20;;;;;;5058192;28;20043;-70
2023/06/02 05:31:16;;;;;;;17.42;3.78;;;12.30;97.10;;;;;;5058061;28;20412;-70
2023/06/02 05:33:41;;;;;;;20.40;3.83;;;12.40;97.30;;;;;;5058441;28;20508;-70
2023/06/02 05:36:07;;;;;;;21.38;4.30;;;12.40;97.20;;;;;;5075056;28;20048;-70
2023/06/02 05:38:33;;;;;;;21.02;3.78;;;12.40;97.30;;;;;;5074862;28;20052;-69
2023/06/02 05:40:58;;;;;;;15.55;2.80;;;12.50;97.50;;;;;;5074983;28;20072;-69
2023/06/02 05:43:24;;;;;;;10.25;2.92;;;12.50;97.40;;;;;;5074786;28;20065;-69
2023/06/02 05:45:49;;;;;;;18.52;3.30;;;12.50;97.40;;;;;;5074761;28;20464;-70
2023/06/02 05:48:15;;;;;;;21.30;3.72;;;12.60;97.50;;;;;;5074983;28;20051;-70
2023/06/02 05:50:43;;;;;;;23.67;3.42;;;12.60;97.60;;;;;;5077634;28;20043;-70
2023/06/02 05:53:08;;;;;;;17.48;3.30;;;12.60;97.60;;;;;;5078521;28;20501;-70
2023/06/02 05:55:34;;;;;;;21.10;3.83;;;12.60;97.60;;;;;;5078441;28;20085;-70
2023/06/02 05:58:00;;;;;;;20.33;3.55;;;12.60;97.60;;;;;;5078422;28;20048;-70
2023/06/02 06:00:26;;;;;;;28.23;4.38;;;12.60;97.60;;;;;;5078264;28;20063;-69
2023/06/02 06:02:52;;;;;;;16.42;3.45;;;12.70;97.70;;;;;;5078191;28;20043;-69
2023/06/02 06:05:18;;;;;;;22.55;3.97;;;12.70;97.80;;;;;;5078531;28;20180;-69
2023/06/02 06:07:44;;;;;;;20.95;3.80;;;12.80;97.90;;;;;;5078239;28;20532;-69
2023/06/02 06:10:09;;;;;;;19.67;3.60;;;12.80;97.80;;;;;;5078504;28;20032;-69
2023/06/02 06:12:35;;;;;;;21.15;4.30;;;12.80;97.80;;;;;;5079062;28;20411;-69
2023/06/02 06:15:01;;;;;;;20.02;3.83;;;12.90;97.80;;;;;;5078357;28;20512;-69
2023/06/02 06:17:26;;;;;;;19.17;4.40;;;12.90;97.90;;;;;;5078009;28;20515;-69
2023/06/02 06:19:52;;;;;;;23.55;5.00;;;12.90;97.90;;;;;;5096429;28;20032;-69
2023/06/02 06:22:17;;;;;;;25.45;4.97;;;12.90;98.00;;;;;;5077840;28;20043;-69
2023/06/02 06:24:43;;;;;;;32.65;4.95;;;13.00;98.00;;;;;;5077945;28;20109;-69
2023/06/02 06:27:09;;;;;;;21.55;3.70;;;13.00;98.00;;;;;;5077864;28;20038;-69
2023/06/02 06:29:35;;;;;;;28.05;3.67;;;13.10;98.00;;;;;;5077828;28;20040;-69
2023/06/02 06:32:00;;;;;;;28.80;3.80;;;13.20;98.10;;;;;;5077756;28;20109;-69
2023/06/02 06:34:27;;;;;;;26.05;5.20;;;13.20;98.10;;;;;;5077788;28;20055;-69
2023/06/02 06:36:53;;;;;;;23.77;4.95;;;13.30;98.10;;;;;;5077717;28;20048;-69
2023/06/02 06:39:18;;;;;;;21.83;3.65;;;13.30;98.20;;;;;;5077621;28;20274;-69
2023/06/02 06:41:44;;;;;;;24.00;3.80;;;13.30;98.20;;;;;;5077659;28;20040;-69
2023/06/02 06:44:10;;;;;;;29.98;4.60;;;13.40;98.20;;;;;;5077803;28;20381;-70
2023/06/02 06:46:36;;;;;;;18.02;4.78;;;13.40;98.20;;;;;;5077518;28;20043;-70
2023/06/02 06:49:01;;;;;;;29.08;4.38;;;13.50;98.20;;;;;;5077689;28;20043;-70
2023/06/02 06:51:27;;;;;;;21.70;4.93;;;13.50;98.20;;;;;;5077366;28;20079;-70
2023/06/02 06:53:53;;;;;;;20.95;3.88;;;13.50;98.30;;;;;;5077311;28;20071;-70
2023/06/02 06:56:18;;;;;;;27.70;4.70;;;13.60;98.40;;;;;;5077320;28;20035;-70
2023/06/02 06:58:44;;;;;;;31.30;5.45;;;13.60;98.40;;;;;;5077319;28;20036;-70
2023/06/02 07:01:10;;;;;;;27.17;4.28;;;13.70;98.30;;;;;;5076702;28;20085;-70
2023/06/02 07:03:36;;;;;;;25.20;4.22;;;13.80;98.40;;;;;;5077168;28;20089;-70
2023/06/02 07:06:01;;;;;;;25.65;4.28;;;13.80;98.30;;;;;;5077709;28;20043;-70
2023/06/02 07:08:27;;;;;;;25.13;4.68;;;13.80;98.30;;;;;;5077122;28;20455;-70
2023/06/02 07:10:52;;;;;;;25.77;4.00;;;13.90;98.50;;;;;;5077015;28;20052;-69
2023/06/02 07:13:18;;;;;;;24.85;4.82;;;14.00;98.50;;;;;;5077057;28;20122;-69
2023/06/02 07:15:45;;;;;;;31.52;4.97;;;14.10;98.70;;;;;;5076995;28;20044;-69
2023/06/02 07:18:11;;;;;;;24.17;4.45;;;14.20;98.50;;;;;;5076956;28;20048;-69
2023/06/02 07:20:37;;;;;;;24.65;4.50;;;14.20;98.20;;;;;;5077022;28;20044;-69
2023/06/02 07:23:02;;;;;;;26.20;5.00;;;14.30;98.20;;;;;;5076778;28;20051;-69
2023/06/02 07:25:28;;;;;;;30.08;5.50;;;14.40;98.10;;;;;;5094883;28;20047;-69
2023/06/02 07:27:53;;;;;;;22.67;4.28;;;14.40;98.40;;;;;;5076695;28;20033;-69
2023/06/02 07:30:20;;;;;;;19.70;4.30;;;14.40;97.90;;;;;;5076731;28;20040;-69
2023/06/02 07:32:46;;;;;;;26.95;4.82;;;14.50;97.90;;;;;;5076558;28;20503;-69
2023/06/02 07:35:11;;;;;;;33.90;5.05;;;14.50;98.00;;;;;;5094917;28;20044;-69
2023/06/02 07:37:37;;;;;;;23.88;4.80;;;14.60;98.10;;;;;;5076518;28;20044;-69
2023/06/02 07:40:03;;;;;;;23.75;4.90;;;14.70;98.10;;;;;;5076477;28;20040;-69
2023/06/02 07:42:29;;;;;;;23.45;4.47;;;14.90;97.80;;;;;;5076540;28;20040;-69
2023/06/02 07:44:55;;;;;;;19.17;4.65;;;15.10;97.90;;;;;;5076334;28;20401;-69
2023/06/02 07:47:22;;;;;;;19.52;5.03;;;15.30;97.60;;;;;;5076350;28;20036;-70
2023/06/02 07:49:47;;;;;;;26.42;5.97;;;15.50;97.00;;;;;;5076256;28;20039;-70
2023/06/02 07:52:13;;;;;;;23.88;4.63;;;15.50;96.60;;;;;;5076220;28;20040;-70
2023/06/02 07:54:39;;;;;;;21.58;4.68;;;15.60;96.30;;;;;;5076470;28;20043;-70
2023/06/02 07:57:05;;;;;;;21.40;5.03;;;15.60;96.30;;;;;;5076149;28;20544;-69
2023/06/02 07:59:31;;;;;;;21.50;4.40;;;15.60;96.10;;;;;;5076133;28;20048;-69
2023/06/02 08:01:57;;;;;;;24.83;5.28;;;15.70;95.90;;;;;;5075858;28;20090;-69
2023/06/02 08:04:25;;;;;;;20.40;4.10;;;15.80;96.10;;;;;;5076278;28;20043;-69
2023/06/02 08:06:57;;;;;;;23.27;4.47;;;16.00;95.90;;;;;;5075984;28;20051;-69
2023/06/02 08:09:24;;;;;;;23.40;4.75;;;16.30;95.40;;;;;;5075930;28;20036;-69
2023/06/02 08:11:50;;;;;;;22.30;4.47;;;16.60;95.20;;;;;;5075058;28;20044;-69
2023/06/02 08:14:16;;;;;;;27.00;4.60;;;16.80;94.50;;;;;;5075748;28;20054;-69
2023/06/02 08:16:42;;;;;;;21.10;4.68;;;17.00;94.30;;;;;;5075808;28;20036;-69
2023/06/02 08:19:10;;;;;;;19.67;3.90;;;17.20;93.40;;;;;;5075953;28;20036;-69
2023/06/02 08:21:36;;;;;;;18.05;4.10;;;17.30;92.50;;;;;;5075533;28;20040;-69
2023/06/02 08:24:02;;;;;;;20.05;3.85;;;17.40;91.90;;;;;;5059046;28;20177;-69
2023/06/02 08:26:29;;;;;;;18.35;3.75;;;17.40;91.90;;;;;;5075613;28;20110;-69
2023/06/02 08:28:55;;;;;;;24.88;4.57;;;17.60;91.70;;;;;;5075516;28;20048;-69
2023/06/02 08:31:22;;;;;;;20.17;4.30;;;17.80;91.30;;;;;;5058795;28;20040;-69
2023/06/02 08:33:52;;;;;;;16.10;3.75;;;17.80;91.00;;;;;;5075440;28;20044;-69
2023/06/02 08:36:21;;;;;;;20.67;4.22;;;17.70;90.90;;;;;;5075745;28;20044;-69
2023/06/02 08:38:51;;;;;;;19.10;3.45;;;17.80;90.30;;;;;;5075498;28;20123;-70
2023/06/02 08:41:17;;;;;;;16.20;3.50;;;17.70;90.20;;;;;;5075624;28;20052;-70
2023/06/02 08:43:43;;;;;;;22.55;4.57;;;17.70;90.40;;;;;;5075376;28;20576;-70
2023/06/02 08:46:14;;;;;;;17.77;4.20;;;17.80;90.20;;;;;;5058723;28;20480;-70
2023/06/02 08:48:44;;;;;;;17.42;4.35;;;17.90;90.10;;;;;;5075330;28;20073;-70
2023/06/02 08:51:13;;;;;;;17.73;3.50;;;18.00;90.20;;;;;;5075192;28;20032;-70
2023/06/02 08:53:39;;;;;;;15.85;3.45;;;18.20;90.40;;;;;;5075245;28;20048;-70
2023/06/02 08:56:05;;;;;;;18.42;3.88;;;18.20;89.90;;;;;;5075353;28;20039;-70
2023/06/02 08:58:31;;;;;;;15.80;3.75;;;18.30;90.30;;;;;;5075159;28;20044;-70
2023/06/02 09:00:57;;;;;;;15.43;3.30;;;18.50;89.50;;;;;;5074986;28;20044;-70
2023/06/02 09:03:25;;;;;;;15.57;2.95;;;18.80;87.30;;;;;;5075156;28;20043;-70
2023/06/02 09:05:51;;;;;;;14.80;3.67;;;19.00;85.90;;;;;;5075427;28;20095;-70
2023/06/02 09:08:16;;;;;;;15.10;3.33;;;19.00;85.10;;;;;;5075151;28;20408;-70
2023/06/02 09:10:44;;;;;;;12.80;2.60;;;18.90;84.00;;;;;;5075258;28;20039;-70
2023/06/02 09:13:27;;;;;;;16.27;3.38;;;19.10;83.90;;;;;;5074898;28;20133;-70
2023/06/02 09:15:57;;;;;;;11.80;2.45;;;19.10;83.90;;;;;;5075063;28;20389;-70
2023/06/02 09:18:23;;;;;;;14.43;2.78;;;19.20;83.20;;;;;;5075288;28;20416;-69
2023/06/02 09:20:50;;;;;;;15.10;2.78;;;19.30;82.60;;;;;;5075155;28;20044;-69
2023/06/02 09:23:16;;;;;;;11.43;2.80;;;19.50;83.60;;;;;;5075634;28;20078;-69
2023/06/02 09:25:43;;;;;;;11.88;2.40;;;19.60;82.20;;;;;;5079084;28;20125;-69
2023/06/02 09:28:12;;;;;;;9.98;2.28;;;19.80;80.80;;;;;;5078941;28;20492;-69
2023/06/02 09:30:38;;;;;;;11.75;2.13;;;20.00;78.90;;;;;;5078904;28;20074;-69
2023/06/02 09:33:10;;;;;;;10.77;2.55;;;20.00;77.90;;;;;;5078959;28;20129;-69
2023/06/02 09:35:41;;;;;;;9.10;2.00;;;19.90;76.80;;;;;;5078877;28;20493;-69
2023/06/02 09:38:15;;;;;;;9.50;2.33;;;19.70;77.60;;;;;;5097253;28;20047;-70
2023/06/02 09:40:41;;;;;;;11.63;2.33;;;19.80;77.40;;;;;;5078725;28;20075;-70
2023/06/02 09:43:12;;;;;;;14.20;2.20;;;20.00;77.40;;;;;;5078856;28;20598;-70
2023/06/02 09:45:47;;;;;;;12.68;2.28;;;20.40;76.20;;;;;;5097442;28;20044;-70
2023/06/02 09:48:22;;;;;;;13.45;2.83;;;20.70;74.90;;;;;;5078673;28;20051;-70
2023/06/02 09:50:48;;;;;;;8.13;1.92;;;20.90;73.30;;;;;;5078466;28;20036;-70
2023/06/02 09:53:17;;;;;;;11.27;2.55;;;21.00;72.30;;;;;;5078462;28;20055;-70
2023/06/02 09:55:45;;;;;;;13.70;2.15;;;20.90;71.00;;;;;;5097222;28;20458;-70
2023/06/02 09:58:11;;;;;;;9.95;2.33;;;20.70;71.10;;;;;;5061656;28;20036;-70
2023/06/02 10:00:37;;;;;;;15.35;2.45;;;20.60;70.60;;;;;;5096777;28;20046;-70
2023/06/02 10:03:04;;;;;;;8.88;2.15;;;20.70;71.70;;;;;;5078252;28;20389;-70
2023/06/02 10:05:31;;;;;;;10.02;2.70;;;20.90;71.40;;;;;;5096449;28;20036;-70
2023/06/02 10:08:05;;;;;;;10.75;2.00;;;21.10;70.80;;;;;;5078432;28;20504;-70
2023/06/02 10:10:59;;;;;;;9.38;1.92;;;21.40;70.60;;;;;;5078123;28;20050;-70
2023/06/02 10:13:41;;;;;;;7.15;1.95;;;21.50;69.40;;;;;;5032302;28;20080;-70
2023/06/02 10:16:35;;;;;;;8.10;2.00;;;21.50;68.90;;;;;;5061500;28;20040;-70
2023/06/02 10:19:23;;;;;;;10.48;1.83;;;21.70;68.50;;;;;;5078278;28;20046;-70
2023/06/02 10:22:05;;;;;;;9.05;2.03;;;21.80;67.70;;;;;;5078102;28;20040;-70
2023/06/02 10:24:45;;;;;;;10.13;1.85;;;21.90;65.80;;;;;;5078059;28;20039;-70
2023/06/02 10:27:17;;;;;;;9.38;2.35;;;22.20;66.00;;;;;;5078210;28;20453;-70
2023/06/02 10:29:45;;;;;;;8.65;1.55;;;22.30;65.90;;;;;;5077971;28;20040;-70
2023/06/02 10:32:33;;;;;;;5.15;1.75;;;22.30;64.90;;;;;;5061072;28;20051;-70
2023/06/02 10:34:59;;;;;;;6.07;1.40;;;22.50;62.50;;;;;;5076981;28;20051;-70
2023/06/02 10:37:25;;;;;;;6.40;1.58;;;22.70;63.50;;;;;;5077987;28;20044;-70
2023/06/02 10:39:55;;;;;;;5.00;1.17;;;23.00;63.90;;;;;;5077681;28;20040;-70
2023/06/02 10:42:23;;;;;;;7.00;1.10;;;23.20;61.60;;;;;;5077541;28;20503;-70
2023/06/02 10:44:51;;;;;;;10.00;1.58;;;23.30;61.40;;;;;;5077797;28;20093;-70
2023/06/02 10:47:17;;;;;;;9.70;1.98;;;23.30;60.50;;;;;;5077603;28;20058;-70
2023/06/02 10:49:59;;;;;;;7.40;1.20;;;23.30;60.80;;;;;;5077739;28;20040;-70
2023/06/02 10:52:26;;;;;;;8.25;1.20;;;23.30;59.60;;;;;;5077443;28;20512;-70
2023/06/02 10:55:07;;;;;;;7.70;1.40;;;23.20;60.20;;;;;;5077367;28;20407;-70
2023/06/02 10:57:50;;;;;;;6.28;1.52;;;23.20;59.00;;;;;;5077373;28;20089;-70
2023/06/02 11:00:43;;;;;;;6.50;1.08;;;23.00;58.00;;;;;;5060627;28;20127;-70
2023/06/02 11:03:14;;;;;;;6.03;1.33;;;22.80;58.50;;;;;;5077203;28;20040;-70
2023/06/02 11:05:41;;;;;;;5.28;1.17;;;23.00;59.30;;;;;;5060553;28;20055;-70
2023/06/02 11:08:17;;;;;;;6.80;1.23;;;23.10;58.30;;;;;;5077043;28;20470;-70
2023/06/02 11:10:56;;;;;;;7.57;1.30;;;22.90;56.20;;;;;;5077063;28;20100;-70
2023/06/02 11:13:24;;;;;;;4.57;1.10;;;22.60;57.80;;;;;;5077074;28;20083;-70
2023/06/02 11:15:58;;;;;;;5.18;1.20;;;22.40;57.80;;;;;;5077275;28;20040;-70
2023/06/02 11:18:25;;;;;;;6.13;1.10;;;22.50;58.70;;;;;;5076931;28;20047;-70
2023/06/02 11:20:53;;;;;;;4.90;1.10;;;22.40;57.90;;;;;;5077066;28;20083;-70
2023/06/02 11:23:20;;;;;;;7.15;1.20;;;22.40;58.90;;;;;;5076768;28;20516;-70
2023/06/02 11:26:02;;;;;;;6.93;1.17;;;22.70;59.00;;;;;;5076740;28;20115;-70
2023/06/02 11:28:28;;;;;;;5.75;1.13;;;23.00;56.80;;;;;;5077040;28;20047;-70
2023/06/02 11:31:08;;;;;;;10.85;1.48;;;23.20;57.50;;;;;;5076544;28;20039;-70
2023/06/02 11:33:37;;;;;;;5.50;1.25;;;23.00;56.00;;;;;;5059996;28;20040;-70
2023/06/02 11:36:03;;;;;;;7.72;1.48;;;23.10;56.80;;;;;;5076891;28;20048;-70
2023/06/02 11:38:33;;;;;;;6.95;1.20;;;23.00;55.90;;;;;;5076509;28;20044;-70
2023/06/02 11:41:15;;;;;;;4.47;1.08;;;22.80;55.70;;;;;;5076349;28;20079;-70
2023/06/02 11:43:46;;;;;;;7.95;1.45;;;22.70;55.70;;;;;;5094525;28;20044;-70
2023/06/02 11:46:16;;;;;;;8.65;1.42;;;22.70;57.00;;;;;;5076423;28;20409;-70
2023/06/02 11:48:43;;;;;;;5.18;1.23;;;23.00;56.20;;;;;;5076316;28;20075;-70
2023/06/02 11:51:15;;;;;;;7.40;1.30;;;23.20;55.90;;;;;;5076165;28;20433;-70
2023/06/02 11:53:45;;;;;;;7.07;1.42;;;23.50;55.80;;;;;;5076571;28;20040;-70
2023/06/02 11:56:12;;;;;;;9.35;1.25;;;23.90;54.00;;;;;;5076270;28;20043;-70
2023/06/02 11:58:41;;;;;;;7.53;1.42;;;24.10;54.00;;;;;;5076116;28;20048;-70
2023/06/02 12:01:15;;;;;;;4.57;1.00;;;24.30;52.30;;;;;;5075965;28;20047;-70
2023/06/02 12:04:05;;;;;;;15.73;1.65;;;24.50;51.50;;;;;;5075965;28;20055;-70
2023/06/02 12:06:35;;;;;;;5.03;1.23;;;24.70;52.80;;;;;;5076016;28;20042;-70
2023/06/02 12:09:15;;;;;;;2.28;0.73;;;24.50;51.20;;;;;;5076277;28;20127;-70
2023/06/02 12:11:43;;;;;;;3.95;1.10;;;24.40;49.30;;;;;;5075822;28;20065;-70
2023/06/02 12:14:10;;;;;;;10.10;1.55;;;24.40;51.90;;;;;;5075793;28;20048;-70
2023/06/02 12:16:38;;;;;;;3.72;1.02;;;24.60;51.30;;;;;;5094215;28;20505;-70
2023/06/02 12:19:22;;;;;;;4.65;0.93;;;24.70;50.20;;;;;;5075725;28;20413;-70
2023/06/02 12:21:51;;;;;;;6.32;1.13;;;24.80;48.50;;;;;;5075661;28;20044;-70
2023/06/02 12:24:34;;;;;;;4.57;1.40;;;24.80;49.20;;;;;;5075695;28;20096;-70
2023/06/02 12:27:00;;;;;;;4.28;1.05;;;24.90;49.00;;;;;;5094030;28;20119;-70
2023/06/02 12:29:27;;;;;;;6.25;1.30;;;25.00;49.60;;;;;;5093712;28;20107;-70
2023/06/02 12:32:00;;;;;;;4.85;0.88;;;25.00;49.20;;;;;;5075475;28;20400;-70
2023/06/02 12:34:26;;;;;;;6.18;1.20;;;24.80;48.60;;;;;;5075732;28;20392;-70
2023/06/02 12:36:52;;;;;;;7.50;1.48;;;24.80;50.30;;;;;;5075814;28;20115;-70
2023/06/02 12:39:18;;;;;;;30.80;2.03;;;25.00;49.70;;;;;;5093559;28;20123;-70
2023/06/02 12:41:44;;;;;;;5.55;1.27;;;25.10;49.60;;;;;;5058851;28;20044;-70